sensor_id;sensor_type;location;lat;lon;timestamp;temperature;humidity
7016;DHT22;3548;48.402;9.990;2023-01-10T00:00:23;4.80;99.90
7016;DHT22;3548;48.402;9.990;2023-01-10T00:02:49;4.80;99.90
7016;DHT22;3548;48.402;9.990;2023-01-10T00:05:15;4.80;99.90
7016;DHT22;3548;48.402;9.990;2023-01-10T00:07:41;4.80;99.90
7016;DHT22;3548;48.402;9.990;2023-01-10T00:10:07;4.80;99.90
7016;DHT22;3548;48.402;9.990;2023-01-10T00:12:33;4.70;99.90
7016;DHT22;3548;48.402;9.990;2023-01-10T00:15:17;4.70;99.90
7016;DHT22;3548;48.402;9.990;2023-01-10T00:17:42;4.60;99.90
7016;DHT22;3548;48.402;9.990;2023-01-10T00:20:08;4.50;99.90
7016;DHT22;3548;48.402;9.990;2023-01-10T00:22:34;4.60;99.90
7016;DHT22;3548;48.402;9.990;2023-01-10T00:25:00;4.50;99.90
7016;DHT22;3548;48.402;9.990;2023-01-10T00:27:25;4.50;99.90
7016;DHT22;3548;48.402;9.990;2023-01-10T00:29:51;4.50;99.90
7016;DHT22;3548;48.402;9.990;2023-01-10T00:32:20;4.40;99.90
7016;DHT22;3548;48.402;9.990;2023-01-10T00:34:46;4.40;99.90
7016;DHT22;3548;48.402;9.990;2023-01-10T00:37:12;4.30;99.90
7016;DHT22;3548;48.402;9.990;2023-01-10T00:39:38;4.30;99.90
7016;DHT22;3548;48.402;9.990;2023-01-10T00:42:03;4.20;99.90
7016;DHT22;3548;48.402;9.990;2023-01-10T00:44:48;4.20;99.90
7016;DHT22;3548;48.402;9.990;2023-01-10T00:47:13;4.20;99.90
7016;DHT22;3548;48.402;9.990;2023-01-10T00:49:39;4.20;99.90
7016;DHT22;3548;48.402;9.990;2023-01-10T00:52:05;4.20;99.90
7016;DHT22;3548;48.402;9.990;2023-01-10T00:54:31;4.20;99.90
7016;DHT22;3548;48.402;9.990;2023-01-10T00:56:56;4.20;99.90
7016;DHT22;3548;48.402;9.990;2023-01-10T00:59:22;4.20;99.90
7016;DHT22;3548;48.402;9.990;2023-01-10T01:01:49;4.20;99.90
7016;DHT22;3548;48.402;9.990;2023-01-10T01:04:15;4.20;99.90
7016;DHT22;3548;48.402;9.990;2023-01-10T01:06:44;4.20;99.90
7016;DHT22;3548;48.402;9.990;2023-01-10T01:09:12;4.20;99.90
7016;DHT22;3548;48.402;9.990;2023-01-10T01:11:38;4.30;99.90
7016;DHT22;3548;48.402;9.990;2023-01-10T01:14:04;4.30;99.90
7016;DHT22;3548;48.402;9.990;2023-01-10T01:16:29;4.30;99.90
7016;DHT22;3548;48.402;9.990;2023-01-10T01:18:56;4.40;99.90
7016;DHT22;3548;48.402;9.990;2023-01-10T01:21:22;4.40;99.90
7016;DHT22;3548;48.402;9.990;2023-01-10T01:23:55;4.40;99.90
7016;DHT22;3548;48.402;9.990;2023-01-10T01:26:24;4.40;99.90
7016;DHT22;3548;48.402;9.990;2023-01-10T01:28:50;4.40;99.90
7016;DHT22;3548;48.402;9.990;2023-01-10T01:31:15;4.40;99.90
7016;DHT22;3548;48.402;9.990;2023-01-10T01:33:41;4.40;99.90
7016;DHT22;3548;48.402;9.990;2023-01-10T01:36:08;4.40;99.90
7016;DHT22;3548;48.402;9.990;2023-01-10T01:38:35;4.40;99.90
7016;DHT22;3548;48.402;9.990;2023-01-10T01:41:01;4.40;99.90
7016;DHT22;3548;48.402;9.990;2023-01-10T01:43:28;4.40;99.90
7016;DHT22;3548;48.402;9.990;2023-01-10T01:45:58;4.40;99.90
7016;DHT22;3548;48.402;9.990;2023-01-10T01:51:07;4.50;99.90
7016;DHT22;3548;48.402;9.990;2023-01-10T01:53:44;4.50;99.90
7016;DHT22;3548;48.402;9.990;2023-01-10T01:56:18;4.50;99.90
7016;DHT22;3548;48.402;9.990;2023-01-10T01:58:48;4.50;99.90
7016;DHT22;3548;48.402;9.990;2023-01-10T02:01:16;4.40;99.90
7016;DHT22;3548;48.402;9.990;2023-01-10T02:03:47;4.50;99.90
7016;DHT22;3548;48.402;9.990;2023-01-10T02:06:15;4.40;99.90
7016;DHT22;3548;48.402;9.990;2023-01-10T03:46:07;4.30;99.90
7016;DHT22;3548;48.402;9.990;2023-01-10T03:48:40;4.30;99.90
7016;DHT22;3548;48.402;9.990;2023-01-10T03:51:07;4.40;99.90
7016;DHT22;3548;48.402;9.990;2023-01-10T03:53:36;4.40;99.90
7016;DHT22;3548;48.402;9.990;2023-01-10T03:56:02;4.40;99.90
7016;DHT22;3548;48.402;9.990;2023-01-10T03:58:28;4.40;99.90
7016;DHT22;3548;48.402;9.990;2023-01-10T04:00:54;4.30;99.90
7016;DHT22;3548;48.402;9.990;2023-01-10T04:03:19;4.30;99.90
7016;DHT22;3548;48.402;9.990;2023-01-10T04:05:45;4.30;99.90
7016;DHT22;3548;48.402;9.990;2023-01-10T04:08:10;4.20;99.90
7016;DHT22;3548;48.402;9.990;2023-01-10T04:10:36;4.20;99.90
7016;DHT22;3548;48.402;9.990;2023-01-10T04:13:02;4.20;99.90
7016;DHT22;3548;48.402;9.990;2023-01-10T04:15:29;4.20;99.90
7016;DHT22;3548;48.402;9.990;2023-01-10T04:17:55;4.30;99.90
7016;DHT22;3548;48.402;9.990;2023-01-10T04:20:21;4.30;99.90
7016;DHT22;3548;48.402;9.990;2023-01-10T04:22:46;4.30;99.90
7016;DHT22;3548;48.402;9.990;2023-01-10T04:25:14;4.30;99.90
7016;DHT22;3548;48.402;9.990;2023-01-10T04:27:40;4.30;99.90
7016;DHT22;3548;48.402;9.990;2023-01-10T04:30:07;4.40;99.90
7016;DHT22;3548;48.402;9.990;2023-01-10T04:32:32;4.40;99.90
7016;DHT22;3548;48.402;9.990;2023-01-10T04:34:58;4.40;99.90
7016;DHT22;3548;48.402;9.990;2023-01-10T04:37:23;4.40;99.90
7016;DHT22;3548;48.402;9.990;2023-01-10T04:39:49;4.40;99.90
7016;DHT22;3548;48.402;9.990;2023-01-10T04:42:15;4.40;99.90
7016;DHT22;3548;48.402;9.990;2023-01-10T04:44:41;4.40;99.90
7016;DHT22;3548;48.402;9.990;2023-01-10T04:47:07;4.50;99.90
7016;DHT22;3548;48.402;9.990;2023-01-10T04:49:32;4.50;99.90
7016;DHT22;3548;48.402;9.990;2023-01-10T04:51:58;4.50;99.90
7016;DHT22;3548;48.402;9.990;2023-01-10T04:54:23;4.50;99.90
7016;DHT22;3548;48.402;9.990;2023-01-10T04:56:49;4.50;99.90
7016;DHT22;3548;48.402;9.990;2023-01-10T04:59:15;4.50;99.90
7016;DHT22;3548;48.402;9.990;2023-01-10T05:01:40;4.50;99.90
7016;DHT22;3548;48.402;9.990;2023-01-10T05:04:06;4.50;99.90
7016;DHT22;3548;48.402;9.990;2023-01-10T05:06:32;4.60;99.90
7016;DHT22;3548;48.402;9.990;2023-01-10T05:08:58;4.60;99.90
7016;DHT22;3548;48.402;9.990;2023-01-10T05:11:23;4.70;99.90
7016;DHT22;3548;48.402;9.990;2023-01-10T05:13:49;4.70;99.90
7016;DHT22;3548;48.402;9.990;2023-01-10T05:16:15;4.60;99.90
7016;DHT22;3548;48.402;9.990;2023-01-10T05:18:41;4.60;99.90
7016;DHT22;3548;48.402;9.990;2023-01-10T05:21:09;4.60;99.90
7016;DHT22;3548;48.402;9.990;2023-01-10T05:23:35;4.70;99.90
7016;DHT22;3548;48.402;9.990;2023-01-10T05:26:09;4.70;99.90
7016;DHT22;3548;48.402;9.990;2023-01-10T05:28:35;4.70;99.90
7016;DHT22;3548;48.402;9.990;2023-01-10T05:31:01;4.80;99.90
7016;DHT22;3548;48.402;9.990;2023-01-10T05:33:27;4.80;99.90
7016;DHT22;3548;48.402;9.990;2023-01-10T05:35:52;4.90;99.90
7016;DHT22;3548;48.402;9.990;2023-01-10T05:38:18;4.90;99.90
7016;DHT22;3548;48.402;9.990;2023-01-10T05:40:44;4.90;99.90
7016;DHT22;3548;48.402;9.990;2023-01-10T05:43:09;5.00;99.90
7016;DHT22;3548;48.402;9.990;2023-01-10T05:45:36;5.00;99.90
7016;DHT22;3548;48.402;9.990;2023-01-10T05:48:02;5.00;99.90
7016;DHT22;3548;48.402;9.990;2023-01-10T05:50:28;5.00;99.90
7016;DHT22;3548;48.402;9.990;2023-01-10T05:52:53;5.00;99.90
7016;DHT22;3548;48.402;9.990;2023-01-10T05:55:19;4.90;99.90
7016;DHT22;3548;48.402;9.990;2023-01-10T05:57:44;4.90;99.90
7016;DHT22;3548;48.402;9.990;2023-01-10T06:00:10;4.90;99.90
7016;DHT22;3548;48.402;9.990;2023-01-10T06:02:36;5.00;99.90
7016;DHT22;3548;48.402;9.990;2023-01-10T06:05:02;5.00;99.90
7016;DHT22;3548;48.402;9.990;2023-01-10T06:07:27;5.00;99.90
7016;DHT22;3548;48.402;9.990;2023-01-10T06:09:53;5.00;99.90
7016;DHT22;3548;48.402;9.990;2023-01-10T06:12:19;5.00;99.90
7016;DHT22;3548;48.402;9.990;2023-01-10T06:14:45;5.10;99.90
7016;DHT22;3548;48.402;9.990;2023-01-10T06:17:11;5.10;99.90
7016;DHT22;3548;48.402;9.990;2023-01-10T06:19:37;5.10;99.90
7016;DHT22;3548;48.402;9.990;2023-01-10T06:22:03;5.10;99.90
7016;DHT22;3548;48.402;9.990;2023-01-10T06:24:28;5.10;99.90
7016;DHT22;3548;48.402;9.990;2023-01-10T06:26:54;5.10;99.90
7016;DHT22;3548;48.402;9.990;2023-01-10T06:29:20;5.10;99.90
7016;DHT22;3548;48.402;9.990;2023-01-10T06:31:46;5.10;99.90
7016;DHT22;3548;48.402;9.990;2023-01-10T06:34:11;5.10;99.90
7016;DHT22;3548;48.402;9.990;2023-01-10T06:36:37;5.10;99.90
7016;DHT22;3548;48.402;9.990;2023-01-10T06:39:03;5.00;99.90
7016;DHT22;3548;48.402;9.990;2023-01-10T06:41:28;5.00;99.90
7016;DHT22;3548;48.402;9.990;2023-01-10T06:43:54;5.00;99.90
7016;DHT22;3548;48.402;9.990;2023-01-10T06:46:19;5.10;99.90
7016;DHT22;3548;48.402;9.990;2023-01-10T06:48:46;5.10;99.90
7016;DHT22;3548;48.402;9.990;2023-01-10T06:51:13;5.10;99.90
7016;DHT22;3548;48.402;9.990;2023-01-10T06:53:39;5.10;99.90
7016;DHT22;3548;48.402;9.990;2023-01-10T06:56:04;5.00;99.90
7016;DHT22;3548;48.402;9.990;2023-01-10T06:58:31;5.00;99.90
7016;DHT22;3548;48.402;9.990;2023-01-10T07:00:57;5.00;99.90
7016;DHT22;3548;48.402;9.990;2023-01-10T07:03:23;5.00;99.90
7016;DHT22;3548;48.402;9.990;2023-01-10T07:05:48;5.00;99.90
7016;DHT22;3548;48.402;9.990;2023-01-10T07:08:14;5.00;99.90
7016;DHT22;3548;48.402;9.990;2023-01-10T07:10:41;4.90;99.90
7016;DHT22;3548;48.402;9.990;2023-01-10T07:13:08;4.90;99.90
7016;DHT22;3548;48.402;9.990;2023-01-10T07:15:33;4.90;99.90
7016;DHT22;3548;48.402;9.990;2023-01-10T07:17:59;5.00;99.90
7016;DHT22;3548;48.402;9.990;2023-01-10T07:20:25;5.00;99.90
7016;DHT22;3548;48.402;9.990;2023-01-10T07:22:58;5.00;99.90
7016;DHT22;3548;48.402;9.990;2023-01-10T07:25:26;5.00;99.90
7016;DHT22;3548;48.402;9.990;2023-01-10T07:27:52;5.00;99.90
7016;DHT22;3548;48.402;9.990;2023-01-10T07:30:20;5.00;99.90
7016;DHT22;3548;48.402;9.990;2023-01-10T07:32:56;5.10;99.90
7016;DHT22;3548;48.402;9.990;2023-01-10T07:35:23;5.10;99.90
7016;DHT22;3548;48.402;9.990;2023-01-10T07:37:49;5.10;99.90
7016;DHT22;3548;48.402;9.990;2023-01-10T07:40:14;5.20;99.90
7016;DHT22;3548;48.402;9.990;2023-01-10T07:42:40;5.10;99.90
7016;DHT22;3548;48.402;9.990;2023-01-10T07:45:06;5.10;99.90
7016;DHT22;3548;48.402;9.990;2023-01-10T07:47:33;5.10;99.90
7016;DHT22;3548;48.402;9.990;2023-01-10T07:49:58;5.10;99.90
7016;DHT22;3548;48.402;9.990;2023-01-10T07:52:25;5.20;99.90
7016;DHT22;3548;48.402;9.990;2023-01-10T07:54:51;5.20;99.90
7016;DHT22;3548;48.402;9.990;2023-01-10T07:57:18;5.30;99.90
7016;DHT22;3548;48.402;9.990;2023-01-10T07:59:44;5.30;99.90
7016;DHT22;3548;48.402;9.990;2023-01-10T08:02:10;5.30;99.90
7016;DHT22;3548;48.402;9.990;2023-01-10T08:04:36;5.20;99.90
7016;DHT22;3548;48.402;9.990;2023-01-10T08:07:03;5.20;99.90
7016;DHT22;3548;48.402;9.990;2023-01-10T08:09:29;5.20;99.90
7016;DHT22;3548;48.402;9.990;2023-01-10T08:11:54;5.20;99.90
7016;DHT22;3548;48.402;9.990;2023-01-10T08:14:20;5.20;99.90
7016;DHT22;3548;48.402;9.990;2023-01-10T08:16:45;5.20;99.90
7016;DHT22;3548;48.402;9.990;2023-01-10T08:19:11;5.20;99.90
7016;DHT22;3548;48.402;9.990;2023-01-10T08:21:41;5.20;99.90
7016;DHT22;3548;48.402;9.990;2023-01-10T08:24:07;5.20;99.90
7016;DHT22;3548;48.402;9.990;2023-01-10T08:26:32;5.20;99.90
7016;DHT22;3548;48.402;9.990;2023-01-10T08:28:59;5.30;99.90
7016;DHT22;3548;48.402;9.990;2023-01-10T08:31:25;5.30;99.90
7016;DHT22;3548;48.402;9.990;2023-01-10T08:33:50;5.40;99.90
7016;DHT22;3548;48.402;9.990;2023-01-10T08:36:17;5.40;99.90
7016;DHT22;3548;48.402;9.990;2023-01-10T08:38:43;5.30;99.90
7016;DHT22;3548;48.402;9.990;2023-01-10T08:41:09;5.40;99.90
7016;DHT22;3548;48.402;9.990;2023-01-10T08:43:35;5.40;99.90
7016;DHT22;3548;48.402;9.990;2023-01-10T08:46:00;5.40;99.90
7016;DHT22;3548;48.402;9.990;2023-01-10T08:48:26;5.40;99.90
7016;DHT22;3548;48.402;9.990;2023-01-10T08:50:51;5.50;99.90
7016;DHT22;3548;48.402;9.990;2023-01-10T08:53:17;5.50;99.90
7016;DHT22;3548;48.402;9.990;2023-01-10T08:55:43;5.50;99.90
7016;DHT22;3548;48.402;9.990;2023-01-10T08:58:09;5.50;99.90
7016;DHT22;3548;48.402;9.990;2023-01-10T09:00:35;5.40;99.90
7016;DHT22;3548;48.402;9.990;2023-01-10T09:03:00;5.50;99.90
7016;DHT22;3548;48.402;9.990;2023-01-10T09:05:26;5.50;99.90
7016;DHT22;3548;48.402;9.990;2023-01-10T09:07:52;5.50;99.90
7016;DHT22;3548;48.402;9.990;2023-01-10T09:10:18;5.50;99.90
7016;DHT22;3548;48.402;9.990;2023-01-10T09:12:45;5.50;99.90
7016;DHT22;3548;48.402;9.990;2023-01-10T09:15:22;5.40;99.90
7016;DHT22;3548;48.402;9.990;2023-01-10T09:17:48;5.30;99.90
7016;DHT22;3548;48.402;9.990;2023-01-10T09:20:16;5.30;99.90
7016;DHT22;3548;48.402;9.990;2023-01-10T09:22:41;5.30;99.90
7016;DHT22;3548;48.402;9.990;2023-01-10T09:25:07;5.30;99.90
7016;DHT22;3548;48.402;9.990;2023-01-10T09:27:33;5.40;99.90
7016;DHT22;3548;48.402;9.990;2023-01-10T09:29:58;5.40;99.90
7016;DHT22;3548;48.402;9.990;2023-01-10T09:32:25;5.40;99.90
7016;DHT22;3548;48.402;9.990;2023-01-10T09:34:50;5.40;99.90
7016;DHT22;3548;48.402;9.990;2023-01-10T09:37:16;5.40;99.90
7016;DHT22;3548;48.402;9.990;2023-01-10T09:39:42;5.50;99.90
7016;DHT22;3548;48.402;9.990;2023-01-10T09:42:23;5.40;99.90
7016;DHT22;3548;48.402;9.990;2023-01-10T09:45:11;5.40;99.90
7016;DHT22;3548;48.402;9.990;2023-01-10T09:47:55;5.30;99.90
7016;DHT22;3548;48.402;9.990;2023-01-10T09:50:31;5.30;99.90
7016;DHT22;3548;48.402;9.990;2023-01-10T09:53:21;5.20;99.90
7016;DHT22;3548;48.402;9.990;2023-01-10T09:55:53;5.20;99.90
7016;DHT22;3548;48.402;9.990;2023-01-10T09:58:20;5.20;99.90
7016;DHT22;3548;48.402;9.990;2023-01-10T10:01:17;5.20;99.90
7016;DHT22;3548;48.402;9.990;2023-01-10T10:03:53;5.20;99.90
7016;DHT22;3548;48.402;9.990;2023-01-10T10:06:20;5.20;99.90
7016;DHT22;3548;48.402;9.990;2023-01-10T10:08:47;5.20;99.90
7016;DHT22;3548;48.402;9.990;2023-01-10T10:22:12;5.00;99.90
7016;DHT22;3548;48.402;9.990;2023-01-10T10:27:22;5.10;99.90
7016;DHT22;3548;48.402;9.990;2023-01-10T10:37:49;5.40;99.90
7016;DHT22;3548;48.402;9.990;2023-01-10T10:40:21;5.30;99.90
7016;DHT22;3548;48.402;9.990;2023-01-10T10:42:52;5.20;99.90
7016;DHT22;3548;48.402;9.990;2023-01-10T10:50:47;5.20;99.90
7016;DHT22;3548;48.402;9.990;2023-01-10T10:53:14;5.30;99.90
7016;DHT22;3548;48.402;9.990;2023-01-10T10:55:42;5.40;99.90
7016;DHT22;3548;48.402;9.990;2023-01-10T10:58:10;5.40;99.90
7016;DHT22;3548;48.402;9.990;2023-01-10T11:00:36;5.50;99.90
7016;DHT22;3548;48.402;9.990;2023-01-10T11:03:24;5.50;99.90
7016;DHT22;3548;48.402;9.990;2023-01-10T11:05:52;5.60;99.90
7016;DHT22;3548;48.402;9.990;2023-01-10T11:08:19;5.60;99.90
7016;DHT22;3548;48.402;9.990;2023-01-10T11:10:52;5.60;99.90
7016;DHT22;3548;48.402;9.990;2023-01-10T11:15:50;5.60;99.90
7016;DHT22;3548;48.402;9.990;2023-01-10T11:18:18;5.60;99.90
7016;DHT22;3548;48.402;9.990;2023-01-10T11:20:58;5.70;99.90
7016;DHT22;3548;48.402;9.990;2023-01-10T11:26:03;5.90;99.90
7016;DHT22;3548;48.402;9.990;2023-01-10T11:28:31;5.90;99.90
7016;DHT22;3548;48.402;9.990;2023-01-10T11:30:58;5.90;99.90
7016;DHT22;3548;48.402;9.990;2023-01-10T11:33:30;5.90;99.90
7016;DHT22;3548;48.402;9.990;2023-01-10T11:36:08;5.90;99.90
7016;DHT22;3548;48.402;9.990;2023-01-10T11:38:35;5.90;99.90
7016;DHT22;3548;48.402;9.990;2023-01-10T11:41:03;5.80;99.90
7016;DHT22;3548;48.402;9.990;2023-01-10T11:43:39;5.80;99.90
7016;DHT22;3548;48.402;9.990;2023-01-10T11:46:16;5.90;99.90
7016;DHT22;3548;48.402;9.990;2023-01-10T11:49:08;5.90;99.90
7016;DHT22;3548;48.402;9.990;2023-01-10T11:51:42;5.90;99.90
7016;DHT22;3548;48.402;9.990;2023-01-10T11:54:24;6.00;99.90
7016;DHT22;3548;48.402;9.990;2023-01-10T11:57:07;6.20;99.90
7016;DHT22;3548;48.402;9.990;2023-01-10T11:59:34;6.20;99.90
7016;DHT22;3548;48.402;9.990;2023-01-10T12:02:26;6.30;99.90
7016;DHT22;3548;48.402;9.990;2023-01-10T12:04:56;6.30;99.90
7016;DHT22;3548;48.402;9.990;2023-01-10T12:07:22;6.30;99.90
7016;DHT22;3548;48.402;9.990;2023-01-10T12:10:00;6.30;99.90
7016;DHT22;3548;48.402;9.990;2023-01-10T12:12:27;6.30;99.90
7016;DHT22;3548;48.402;9.990;2023-01-10T12:18:23;6.30;99.90
7016;DHT22;3548;48.402;9.990;2023-01-10T12:20:51;6.30;99.90
7016;DHT22;3548;48.402;9.990;2023-01-10T12:23:19;6.20;99.90
7016;DHT22;3548;48.402;9.990;2023-01-10T12:25:46;6.10;99.90
7016;DHT22;3548;48.402;9.990;2023-01-10T12:28:17;6.10;99.90
7016;DHT22;3548;48.402;9.990;2023-01-10T12:30:46;6.20;99.90
7016;DHT22;3548;48.402;9.990;2023-01-10T12:33:46;6.20;99.90
7016;DHT22;3548;48.402;9.990;2023-01-10T12:39:09;6.30;99.90
7016;DHT22;3548;48.402;9.990;2023-01-10T12:44:42;6.30;99.90
7016;DHT22;3548;48.402;9.990;2023-01-10T12:50:18;6.50;99.90
7016;DHT22;3548;48.402;9.990;2023-01-10T12:52:50;6.60;99.90
7016;DHT22;3548;48.402;9.990;2023-01-10T12:55:23;6.70;99.90
7016;DHT22;3548;48.402;9.990;2023-01-10T12:57:53;6.70;99.90
7016;DHT22;3548;48.402;9.990;2023-01-10T13:00:23;6.70;99.90
7016;DHT22;3548;48.402;9.990;2023-01-10T13:02:55;6.60;99.90
7016;DHT22;3548;48.402;9.990;2023-01-10T13:05:24;6.60;99.90
7016;DHT22;3548;48.402;9.990;2023-01-10T13:07:52;6.60;99.90
7016;DHT22;3548;48.402;9.990;2023-01-10T13:10:23;6.60;99.90
7016;DHT22;3548;48.402;9.990;2023-01-10T13:13:00;6.60;99.90
7016;DHT22;3548;48.402;9.990;2023-01-10T13:15:38;6.60;99.90
7016;DHT22;3548;48.402;9.990;2023-01-10T13:18:28;6.50;99.90
7016;DHT22;3548;48.402;9.990;2023-01-10T13:21:06;6.60;99.90
7016;DHT22;3548;48.402;9.990;2023-01-10T13:23:37;6.60;99.90
7016;DHT22;3548;48.402;9.990;2023-01-10T13:26:08;6.60;99.90
7016;DHT22;3548;48.402;9.990;2023-01-10T13:28:37;6.60;99.90
7016;DHT22;3548;48.402;9.990;2023-01-10T13:31:06;6.60;99.90
7016;DHT22;3548;48.402;9.990;2023-01-10T13:33:56;6.70;99.90
7016;DHT22;3548;48.402;9.990;2023-01-10T13:36:27;6.60;99.90
7016;DHT22;3548;48.402;9.990;2023-01-10T13:38:54;6.50;99.90
7016;DHT22;3548;48.402;9.990;2023-01-10T13:41:21;6.50;99.90
7016;DHT22;3548;48.402;9.990;2023-01-10T13:44:11;6.50;99.90
7016;DHT22;3548;48.402;9.990;2023-01-10T13:51:36;6.70;99.90
7016;DHT22;3548;48.402;9.990;2023-01-10T13:56:42;6.90;99.90
7016;DHT22;3548;48.402;9.990;2023-01-10T13:59:12;7.00;99.90
7016;DHT22;3548;48.402;9.990;2023-01-10T14:01:58;7.20;99.90
7016;DHT22;3548;48.402;9.990;2023-01-10T14:04:52;7.10;99.90
7016;DHT22;3548;48.402;9.990;2023-01-10T14:09:50;7.10;99.90
7016;DHT22;3548;48.402;9.990;2023-01-10T14:12:21;7.00;99.90
7016;DHT22;3548;48.402;9.990;2023-01-10T14:15:19;7.00;99.90
7016;DHT22;3548;48.402;9.990;2023-01-10T14:18:37;7.00;99.90
7016;DHT22;3548;48.402;9.990;2023-01-10T14:20:40;6.90;99.50
7016;DHT22;3548;48.402;9.990;2023-01-10T14:25:42;6.80;99.30
7016;DHT22;3548;48.402;9.990;2023-01-10T14:28:28;6.80;98.90
7016;DHT22;3548;48.402;9.990;2023-01-10T14:33:41;6.80;98.80
7016;DHT22;3548;48.402;9.990;2023-01-10T14:36:28;6.80;98.50
7016;DHT22;3548;48.402;9.990;2023-01-10T14:38:58;6.80;98.50
7016;DHT22;3548;48.402;9.990;2023-01-10T14:44:35;6.80;98.30
7016;DHT22;3548;48.402;9.990;2023-01-10T14:47:03;6.80;98.70
7016;DHT22;3548;48.402;9.990;2023-01-10T14:49:33;6.70;98.30
7016;DHT22;3548;48.402;9.990;2023-01-10T14:52:19;6.70;98.00
7016;DHT22;3548;48.402;9.990;2023-01-10T14:54:45;6.60;98.10
7016;DHT22;3548;48.402;9.990;2023-01-10T14:57:19;6.60;97.90
7016;DHT22;3548;48.402;9.990;2023-01-10T14:59:48;6.50;97.90
7016;DHT22;3548;48.402;9.990;2023-01-10T15:02:23;6.50;98.20
7016;DHT22;3548;48.402;9.990;2023-01-10T15:05:06;6.50;98.10
7016;DHT22;3548;48.402;9.990;2023-01-10T15:07:34;6.40;98.30
7016;DHT22;3548;48.402;9.990;2023-01-10T15:10:09;6.40;98.20
7016;DHT22;3548;48.402;9.990;2023-01-10T15:12:41;6.40;98.40
7016;DHT22;3548;48.402;9.990;2023-01-10T15:15:16;6.30;98.70
7016;DHT22;3548;48.402;9.990;2023-01-10T15:17:43;6.30;98.80
7016;DHT22;3548;48.402;9.990;2023-01-10T15:20:19;6.30;98.80
7016;DHT22;3548;48.402;9.990;2023-01-10T15:22:55;6.20;99.20
7016;DHT22;3548;48.402;9.990;2023-01-10T15:25:35;6.20;99.70
7016;DHT22;3548;48.402;9.990;2023-01-10T15:28:04;6.10;99.50
7016;DHT22;3548;48.402;9.990;2023-01-10T15:30:34;6.00;99.90
7016;DHT22;3548;48.402;9.990;2023-01-10T15:33:04;6.00;99.90
7016;DHT22;3548;48.402;9.990;2023-01-10T15:35:32;5.90;99.90
7016;DHT22;3548;48.402;9.990;2023-01-10T15:38:12;5.90;99.90
7016;DHT22;3548;48.402;9.990;2023-01-10T15:40:39;5.80;99.90
7016;DHT22;3548;48.402;9.990;2023-01-10T15:43:24;5.80;99.90
7016;DHT22;3548;48.402;9.990;2023-01-10T15:45:52;5.80;99.90
7016;DHT22;3548;48.402;9.990;2023-01-10T15:51:46;5.80;99.90
7016;DHT22;3548;48.402;9.990;2023-01-10T15:56:51;5.60;99.90
7016;DHT22;3548;48.402;9.990;2023-01-10T15:59:40;5.50;99.90
7016;DHT22;3548;48.402;9.990;2023-01-10T16:04:48;5.40;99.90
7016;DHT22;3548;48.402;9.990;2023-01-10T16:07:17;5.40;99.90
7016;DHT22;3548;48.402;9.990;2023-01-10T16:12:25;5.30;99.90
7016;DHT22;3548;48.402;9.990;2023-01-10T16:15:18;5.20;99.90
7016;DHT22;3548;48.402;9.990;2023-01-10T16:17:46;5.20;99.90
7016;DHT22;3548;48.402;9.990;2023-01-10T16:20:16;5.20;99.90
7016;DHT22;3548;48.402;9.990;2023-01-10T16:22:43;5.20;99.90
7016;DHT22;3548;48.402;9.990;2023-01-10T16:25:17;5.20;99.90
7016;DHT22;3548;48.402;9.990;2023-01-10T16:27:43;5.20;99.90
7016;DHT22;3548;48.402;9.990;2023-01-10T16:30:24;5.20;99.90
7016;DHT22;3548;48.402;9.990;2023-01-10T16:32:50;5.20;99.90
7016;DHT22;3548;48.402;9.990;2023-01-10T16:35:16;5.20;99.90
7016;DHT22;3548;48.402;9.990;2023-01-10T16:37:44;5.20;99.90
7016;DHT22;3548;48.402;9.990;2023-01-10T16:40:17;5.20;99.90
7016;DHT22;3548;48.402;9.990;2023-01-10T16:42:43;5.10;99.90
7016;DHT22;3548;48.402;9.990;2023-01-10T16:45:28;5.10;99.90
7016;DHT22;3548;48.402;9.990;2023-01-10T16:47:53;5.10;99.90
7016;DHT22;3548;48.402;9.990;2023-01-10T16:50:19;5.00;99.90
7016;DHT22;3548;48.402;9.990;2023-01-10T16:52:45;5.00;99.90
7016;DHT22;3548;48.402;9.990;2023-01-10T16:55:15;4.90;99.90
7016;DHT22;3548;48.402;9.990;2023-01-10T16:57:42;4.90;99.90
7016;DHT22;3548;48.402;9.990;2023-01-10T17:00:12;4.90;99.90
7016;DHT22;3548;48.402;9.990;2023-01-10T17:02:38;4.90;99.90
7016;DHT22;3548;48.402;9.990;2023-01-10T17:05:05;4.80;99.90
7016;DHT22;3548;48.402;9.990;2023-01-10T17:07:31;4.80;99.90
7016;DHT22;3548;48.402;9.990;2023-01-10T17:09:57;4.70;99.90
7016;DHT22;3548;48.402;9.990;2023-01-10T17:12:30;4.70;99.90
7016;DHT22;3548;48.402;9.990;2023-01-10T17:14:57;4.80;99.90
7016;DHT22;3548;48.402;9.990;2023-01-10T17:17:23;4.80;99.90
7016;DHT22;3548;48.402;9.990;2023-01-10T17:19:48;4.80;99.90
7016;DHT22;3548;48.402;9.990;2023-01-10T17:22:14;4.80;99.90
7016;DHT22;3548;48.402;9.990;2023-01-10T17:24:40;4.80;99.90
7016;DHT22;3548;48.402;9.990;2023-01-10T17:27:05;4.80;99.90
7016;DHT22;3548;48.402;9.990;2023-01-10T17:29:31;4.80;99.90
7016;DHT22;3548;48.402;9.990;2023-01-10T17:31:58;4.70;99.90
7016;DHT22;3548;48.402;9.990;2023-01-10T17:34:23;4.70;99.90
7016;DHT22;3548;48.402;9.990;2023-01-10T17:36:49;4.60;99.90
7016;DHT22;3548;48.402;9.990;2023-01-10T17:39:15;4.60;99.90
7016;DHT22;3548;48.402;9.990;2023-01-10T17:41:41;4.50;99.90
7016;DHT22;3548;48.402;9.990;2023-01-10T17:44:06;4.50;99.90
7016;DHT22;3548;48.402;9.990;2023-01-10T17:46:32;4.50;99.90
7016;DHT22;3548;48.402;9.990;2023-01-10T17:48:58;4.40;99.90
7016;DHT22;3548;48.402;9.990;2023-01-10T17:51:23;4.40;99.90
7016;DHT22;3548;48.402;9.990;2023-01-10T17:53:50;4.40;99.90
7016;DHT22;3548;48.402;9.990;2023-01-10T17:56:15;4.30;99.90
7016;DHT22;3548;48.402;9.990;2023-01-10T17:58:42;4.30;99.90
7016;DHT22;3548;48.402;9.990;2023-01-10T18:01:17;4.30;99.90
7016;DHT22;3548;48.402;9.990;2023-01-10T18:03:43;4.30;99.90
7016;DHT22;3548;48.402;9.990;2023-01-10T18:06:09;4.20;99.90
7016;DHT22;3548;48.402;9.990;2023-01-10T18:08:34;4.20;99.90
7016;DHT22;3548;48.402;9.990;2023-01-10T18:11:02;4.10;99.90
7016;DHT22;3548;48.402;9.990;2023-01-10T18:13:28;4.10;99.90
7016;DHT22;3548;48.402;9.990;2023-01-10T18:15:58;4.10;99.90
7016;DHT22;3548;48.402;9.990;2023-01-10T18:18:23;4.00;99.90
7016;DHT22;3548;48.402;9.990;2023-01-10T18:20:52;4.00;99.90
7016;DHT22;3548;48.402;9.990;2023-01-10T18:23:20;4.00;99.90
7016;DHT22;3548;48.402;9.990;2023-01-10T18:26:00;3.90;99.90
7016;DHT22;3548;48.402;9.990;2023-01-10T18:28:32;3.90;99.90
7016;DHT22;3548;48.402;9.990;2023-01-10T18:31:01;3.90;99.90
7016;DHT22;3548;48.402;9.990;2023-01-10T18:33:27;3.90;99.90
7016;DHT22;3548;48.402;9.990;2023-01-10T18:35:53;3.90;99.90
7016;DHT22;3548;48.402;9.990;2023-01-10T18:38:20;3.90;99.90
7016;DHT22;3548;48.402;9.990;2023-01-10T18:40:46;3.90;99.90
7016;DHT22;3548;48.402;9.990;2023-01-10T18:43:12;3.90;99.90
7016;DHT22;3548;48.402;9.990;2023-01-10T18:45:43;3.90;99.90
7016;DHT22;3548;48.402;9.990;2023-01-10T18:48:10;3.90;99.90
7016;DHT22;3548;48.402;9.990;2023-01-10T18:50:37;4.00;99.90
7016;DHT22;3548;48.402;9.990;2023-01-10T18:53:03;4.00;99.90
7016;DHT22;3548;48.402;9.990;2023-01-10T18:55:29;4.00;99.90
7016;DHT22;3548;48.402;9.990;2023-01-10T18:57:54;4.00;99.90
7016;DHT22;3548;48.402;9.990;2023-01-10T19:00:20;4.00;99.90
7016;DHT22;3548;48.402;9.990;2023-01-10T19:02:46;4.00;99.90
7016;DHT22;3548;48.402;9.990;2023-01-10T19:05:12;4.00;99.90
7016;DHT22;3548;48.402;9.990;2023-01-10T19:07:39;4.00;99.90
7016;DHT22;3548;48.402;9.990;2023-01-10T19:10:05;4.00;99.90
7016;DHT22;3548;48.402;9.990;2023-01-10T19:12:31;4.00;99.90
7016;DHT22;3548;48.402;9.990;2023-01-10T19:14:57;4.00;99.90
7016;DHT22;3548;48.402;9.990;2023-01-10T19:17:23;3.90;99.90
7016;DHT22;3548;48.402;9.990;2023-01-10T19:19:49;4.00;99.90
7016;DHT22;3548;48.402;9.990;2023-01-10T19:22:15;4.00;99.90